createdAt,value
2019-01-08T00:00:03.718Z,10.13
2019-01-08T00:02:44.906Z,10.73
2019-01-08T00:05:25.626Z,10.03
2019-01-08T00:08:06.276Z,9.77
2019-01-08T00:10:46.768Z,9.37
2019-01-08T00:13:27.725Z,9.90
2019-01-08T00:16:08.693Z,8.13
2019-01-08T00:18:49.194Z,8.83
2019-01-08T00:21:29.606Z,8.03
2019-01-08T00:24:10.016Z,7.63
2019-01-08T00:26:50.675Z,7.90
2019-01-08T00:29:31.073Z,7.30
2019-01-08T00:32:11.549Z,7.30
2019-01-08T00:34:52.090Z,7.47
2019-01-08T00:37:32.588Z,6.63
2019-01-08T00:40:12.933Z,6.77
2019-01-08T00:42:53.672Z,5.40
2019-01-08T00:45:34.274Z,5.67
2019-01-08T00:48:14.672Z,5.33
2019-01-08T00:50:55.319Z,5.60
2019-01-08T00:53:35.828Z,5.10
2019-01-08T00:56:16.502Z,4.77
2019-01-08T00:58:57.225Z,4.73
2019-01-08T01:01:38.020Z,4.30
2019-01-08T01:04:18.630Z,4.67
2019-01-08T01:06:59.064Z,3.80
2019-01-08T01:09:39.597Z,4.10
2019-01-08T01:12:20.514Z,3.57
2019-01-08T01:15:01.514Z,3.57
2019-01-08T01:17:42.178Z,3.50
2019-01-08T01:20:22.969Z,3.47
2019-01-08T01:23:03.405Z,3.47
2019-01-08T01:25:43.750Z,3.40
2019-01-08T01:28:24.311Z,3.67
2019-01-08T01:31:05.007Z,3.50
2019-01-08T01:33:45.639Z,3.40
2019-01-08T01:36:26.304Z,3.60
2019-01-08T01:39:07.179Z,3.40
2019-01-08T01:41:47.924Z,3.77
2019-01-08T01:44:28.459Z,3.43
2019-01-08T01:47:09.257Z,3.70
2019-01-08T01:49:49.951Z,3.53
2019-01-08T01:52:30.400Z,3.73
2019-01-08T01:55:11.123Z,3.60
2019-01-08T01:57:52.012Z,4.00
2019-01-08T02:00:32.961Z,3.80
2019-01-08T02:03:13.511Z,3.90
2019-01-08T02:05:54.180Z,4.00
2019-01-08T02:08:34.824Z,4.03
2019-01-08T02:11:15.052Z,4.13
2019-01-08T02:13:55.856Z,4.30
2019-01-08T02:16:36.403Z,3.97
2019-01-08T02:19:16.883Z,4.10
2019-01-08T02:21:57.855Z,3.77
2019-01-08T02:24:38.603Z,4.30
2019-01-08T02:27:19.384Z,3.77
2019-01-08T02:29:59.862Z,4.10
2019-01-08T02:32:40.316Z,3.60
2019-01-08T02:35:21.337Z,3.50
2019-01-08T02:38:02.245Z,3.33
2019-01-08T02:40:43.030Z,3.10
2019-01-08T02:43:23.903Z,2.90
2019-01-08T02:46:04.662Z,2.70
2019-01-08T02:48:45.176Z,2.80
2019-01-08T02:51:26.070Z,2.33
2019-01-08T02:54:07.057Z,2.07
2019-01-08T02:56:47.946Z,2.40
2019-01-08T02:59:28.683Z,2.40
2019-01-08T03:02:09.463Z,2.10
2019-01-08T03:04:51.995Z,2.80
2019-01-08T03:07:33.091Z,2.30
2019-01-08T03:10:13.825Z,2.10
2019-01-08T03:12:54.152Z,2.30
2019-01-08T03:15:35.076Z,2.00
2019-01-08T03:18:15.592Z,1.97
2019-01-08T03:20:56.597Z,2.00
2019-01-08T03:23:37.400Z,2.07
2019-01-08T03:26:17.996Z,2.00
2019-01-08T03:28:58.423Z,1.63
2019-01-08T03:31:39.241Z,1.80
2019-01-08T03:34:20.134Z,1.80
2019-01-08T03:37:01.073Z,1.90
2019-01-08T03:39:41.704Z,1.57
2019-01-08T03:42:22.538Z,1.80
2019-01-08T03:45:03.332Z,1.77
2019-01-08T03:47:44.056Z,1.97
2019-01-08T03:50:24.520Z,1.77
2019-01-08T03:53:05.406Z,1.47
2019-01-08T03:55:46.232Z,1.57
2019-01-08T03:58:27.074Z,1.70
2019-01-08T04:01:07.481Z,1.43
2019-01-08T04:03:48.181Z,1.30
2019-01-08T04:06:28.838Z,1.70
2019-01-08T04:09:09.745Z,1.43
2019-01-08T04:11:50.656Z,1.70
2019-01-08T04:14:31.412Z,1.60
2019-01-08T04:17:12.298Z,1.27
2019-01-08T04:19:52.843Z,1.67
2019-01-08T04:22:33.349Z,1.87
2019-01-08T04:25:13.902Z,1.43
2019-01-08T04:27:54.611Z,1.43
2019-01-08T04:33:17.825Z,1.70
2019-01-08T04:35:58.211Z,1.20
2019-01-08T04:38:39.294Z,1.53
2019-01-08T04:41:19.941Z,1.80
2019-01-08T04:44:00.565Z,1.23
2019-01-08T04:46:41.364Z,1.43
2019-01-08T04:49:21.902Z,1.50
2019-01-08T04:52:02.219Z,1.70
2019-01-08T04:54:43.109Z,1.73
2019-01-08T04:57:24.269Z,2.00
2019-01-08T05:00:04.522Z,1.90
2019-01-08T05:02:45.128Z,2.00
2019-01-08T05:05:25.808Z,1.80
2019-01-08T05:08:06.757Z,2.00
2019-01-08T05:10:47.617Z,1.60
2019-01-08T05:13:28.124Z,1.97
2019-01-08T05:16:08.771Z,1.67
2019-01-08T05:18:49.612Z,2.20
2019-01-08T05:21:30.685Z,2.87
2019-01-08T05:24:11.302Z,2.70
2019-01-08T05:26:51.999Z,2.90
2019-01-08T05:29:33.115Z,3.23
2019-01-08T05:32:13.794Z,3.20
2019-01-08T05:34:54.730Z,3.40
2019-01-08T05:37:35.657Z,3.43
2019-01-08T05:40:16.613Z,3.73
2019-01-08T05:42:57.698Z,2.90
2019-01-08T05:45:26.155Z,2.03
2019-01-08T05:48:13.951Z,2.77
2019-01-08T05:51:01.706Z,3.10
2019-01-08T05:53:49.475Z,3.50
2019-01-08T05:56:37.227Z,4.10
2019-01-08T05:59:24.983Z,2.80
2019-01-08T06:02:12.761Z,2.87
2019-01-08T06:05:00.519Z,3.17
2019-01-08T06:07:48.359Z,2.53
2019-01-08T06:10:28.662Z,2.27
2019-01-08T06:13:09.352Z,2.73
2019-01-08T06:15:50.266Z,3.13
2019-01-08T06:18:31.410Z,3.00
2019-01-08T06:27:23.550Z,4.00
2019-01-08T06:30:04.273Z,4.20
2019-01-08T06:32:45.147Z,4.33
2019-01-08T06:35:25.813Z,4.87
2019-01-08T06:38:06.400Z,4.27
2019-01-08T06:40:47.286Z,4.30
2019-01-08T06:43:27.752Z,4.73
2019-01-08T06:46:08.221Z,4.73
2019-01-08T06:48:49.237Z,3.00
2019-01-08T06:51:29.982Z,3.43
2019-01-08T06:54:10.615Z,2.53
2019-01-08T06:56:51.329Z,4.10
2019-01-08T06:59:31.762Z,3.07
2019-01-08T07:02:12.708Z,3.27
2019-01-08T07:04:53.437Z,3.30
2019-01-08T07:07:34.113Z,3.23
2019-01-08T07:10:14.881Z,3.07
2019-01-08T07:12:55.821Z,3.00
2019-01-08T07:15:36.919Z,3.00
2019-01-08T07:18:17.724Z,3.00
2019-01-08T07:23:40.738Z,2.60
2019-01-08T07:26:21.697Z,3.23
2019-01-08T07:29:02.300Z,3.03
2019-01-08T07:31:42.806Z,2.70
2019-01-08T07:34:24.502Z,3.00
2019-01-08T07:37:05.319Z,3.10
2019-01-08T07:39:46.069Z,3.30
2019-01-08T07:42:26.979Z,3.27
2019-01-08T07:45:07.471Z,3.67
2019-01-08T07:47:48.189Z,3.17
2019-01-08T07:50:28.999Z,3.13
2019-01-08T07:53:10.012Z,2.90
2019-01-08T07:55:50.915Z,3.17
2019-01-08T07:58:31.932Z,2.50
2019-01-08T08:01:12.867Z,3.33
2019-01-08T08:03:53.514Z,3.00
2019-01-08T08:06:34.395Z,3.13
2019-01-08T08:09:15.355Z,2.50
2019-01-08T08:11:56.294Z,2.70
2019-01-08T08:14:37.083Z,2.50
2019-01-08T08:17:17.914Z,2.80
2019-01-08T08:19:59.019Z,3.20
2019-01-08T08:22:39.573Z,3.47
2019-01-08T08:25:20.094Z,3.90
2019-01-08T08:28:00.506Z,4.10
2019-01-08T08:30:40.876Z,2.73
2019-01-08T08:33:21.488Z,3.00
2019-01-08T08:36:02.278Z,2.67
2019-01-08T08:38:43.089Z,2.73
2019-01-08T08:41:23.653Z,3.20
2019-01-08T08:44:04.377Z,2.90
2019-01-08T08:46:44.985Z,3.30
2019-01-08T08:49:25.507Z,3.63
2019-01-08T08:52:06.217Z,3.20
2019-01-08T08:54:47.225Z,3.10
2019-01-08T08:57:27.911Z,3.57
2019-01-08T09:00:08.786Z,3.23
2019-01-08T09:02:49.701Z,2.93
2019-01-08T09:05:30.524Z,3.23
2019-01-08T09:08:11.122Z,2.60
2019-01-08T09:10:51.712Z,2.93
2019-01-08T09:13:32.556Z,3.07
2019-01-08T09:16:13.479Z,2.57
2019-01-08T09:18:54.199Z,3.13
2019-01-08T09:21:34.755Z,2.70
2019-01-08T09:24:15.871Z,2.60
2019-01-08T09:26:56.938Z,2.53
2019-01-08T09:29:37.777Z,3.00
2019-01-08T09:32:18.711Z,1.63
2019-01-08T09:34:59.302Z,2.97
2019-01-08T09:37:39.837Z,2.77
2019-01-08T09:40:20.470Z,2.43
2019-01-08T09:43:01.124Z,2.83
2019-01-08T09:45:42.454Z,3.00
2019-01-08T09:48:22.815Z,2.47
2019-01-08T09:51:03.356Z,3.00
2019-01-08T09:53:44.118Z,2.50
2019-01-08T09:56:24.604Z,3.13
2019-01-08T09:59:05.289Z,4.50
2019-01-08T10:01:46.137Z,4.97
2019-01-08T10:04:26.773Z,5.13
2019-01-08T10:07:07.837Z,2.77
2019-01-08T10:09:49.632Z,2.80
2019-01-08T10:12:30.214Z,2.67
2019-01-08T10:15:10.718Z,3.40
2019-01-08T10:17:51.337Z,2.80
2019-01-08T10:20:31.900Z,2.40
2019-01-08T10:23:12.502Z,2.73
2019-01-08T10:25:53.151Z,2.90
2019-01-08T10:28:33.980Z,3.17
2019-01-08T10:31:14.735Z,2.57
2019-01-08T10:33:55.318Z,1.93
2019-01-08T10:36:36.101Z,2.40
2019-01-08T10:39:17.170Z,2.13
2019-01-08T10:41:57.636Z,2.30
2019-01-08T10:44:38.553Z,2.43
2019-01-08T10:47:19.359Z,1.57
2019-01-08T10:52:42.087Z,3.00
2019-01-08T10:55:22.885Z,3.00
2019-01-08T10:58:03.824Z,2.27
2019-01-08T11:00:44.259Z,1.33
2019-01-08T11:03:25.178Z,1.90
2019-01-08T11:06:05.779Z,2.40
2019-01-08T11:08:46.485Z,2.97
2019-01-08T11:11:27.374Z,3.60
2019-01-08T11:16:50.669Z,3.73
2019-01-08T11:19:31.833Z,2.50
2019-01-08T11:22:12.290Z,2.80
2019-01-08T11:24:52.987Z,1.87
2019-01-08T11:30:32.729Z,3.40
2019-01-08T11:33:13.198Z,1.87
2019-01-08T11:35:54.032Z,3.77
2019-01-08T11:38:34.484Z,2.93
2019-01-08T11:41:14.960Z,3.30
2019-01-08T11:43:55.509Z,4.77
2019-01-08T11:46:36.355Z,3.17
2019-01-08T11:49:04.778Z,4.47
2019-01-08T11:51:52.568Z,4.63
2019-01-08T11:54:41.153Z,3.60
2019-01-08T11:57:29.834Z,5.20
2019-01-08T12:03:19.138Z,4.60
2019-01-08T12:05:59.947Z,4.20
2019-01-08T12:08:40.982Z,3.90
2019-01-08T12:11:22.153Z,3.77
2019-01-08T12:14:03.125Z,4.73
2019-01-08T12:16:43.603Z,3.80
2019-01-08T12:19:24.040Z,3.97
2019-01-08T12:22:04.570Z,3.37
2019-01-08T12:24:45.585Z,3.73
2019-01-08T12:27:26.372Z,3.60
2019-01-08T12:30:07.178Z,3.20
2019-01-08T12:32:48.110Z,3.30
2019-01-08T12:35:28.514Z,3.90
2019-01-08T12:38:08.974Z,2.70
2019-01-08T12:40:49.400Z,3.30
2019-01-08T12:43:29.751Z,3.60
2019-01-08T12:46:10.453Z,3.80
2019-01-08T12:48:51.226Z,2.90
2019-01-08T12:51:32.021Z,3.47
2019-01-08T12:54:12.595Z,2.93
2019-01-08T12:56:53.187Z,3.20
2019-01-08T12:59:33.930Z,3.10
2019-01-08T13:02:15.128Z,3.23
2019-01-08T13:04:56.060Z,2.83
2019-01-08T13:07:36.762Z,3.13
2019-01-08T13:10:17.424Z,3.13
2019-01-08T13:12:57.988Z,3.03
2019-01-08T13:15:38.373Z,3.00
2019-01-08T13:18:18.700Z,2.00
2019-01-08T13:20:59.065Z,3.03
2019-01-08T13:23:39.841Z,2.80
2019-01-08T13:26:20.329Z,2.10
2019-01-08T13:29:00.640Z,3.40
2019-01-08T13:31:41.138Z,2.60
2019-01-08T13:34:21.643Z,2.70
2019-01-08T13:37:02.620Z,2.57
2019-01-08T13:39:43.461Z,3.27
2019-01-08T13:42:24.059Z,2.80
2019-01-08T13:45:05.047Z,2.53
2019-01-08T13:47:45.556Z,3.10
2019-01-08T13:50:26.287Z,2.60
2019-01-08T13:53:06.740Z,3.33
2019-01-08T13:55:47.328Z,3.50
2019-01-08T13:58:28.098Z,3.47
2019-01-08T14:01:08.657Z,3.10
2019-01-08T14:03:49.329Z,3.60
2019-01-08T14:06:29.801Z,3.23
2019-01-08T14:09:10.252Z,3.23
2019-01-08T14:11:51.136Z,3.60
2019-01-08T14:14:31.891Z,3.87
2019-01-08T14:17:12.220Z,2.37
2019-01-08T14:19:52.993Z,2.50
2019-01-08T14:22:33.853Z,3.60
2019-01-08T14:25:14.661Z,2.87
2019-01-08T14:27:55.440Z,2.77
2019-01-08T14:30:36.026Z,2.50
2019-01-08T14:33:16.566Z,2.33
2019-01-08T14:35:57.351Z,3.07
2019-01-08T14:38:37.808Z,1.97
2019-01-08T14:41:18.581Z,1.60
2019-01-08T14:43:59.456Z,2.93
2019-01-08T14:46:39.978Z,2.00
2019-01-08T14:49:20.465Z,2.90
2019-01-08T14:52:00.976Z,2.17
2019-01-08T14:54:41.917Z,1.67
2019-01-08T15:00:05.087Z,2.17
2019-01-08T15:02:49.680Z,2.00
2019-01-08T15:05:28.692Z,1.97
2019-01-08T15:08:09.354Z,1.27
2019-01-08T15:10:49.808Z,1.87
2019-01-08T15:13:30.598Z,1.50
2019-01-08T15:16:11.498Z,2.30
2019-01-08T15:18:52.680Z,2.47
2019-01-08T15:21:33.432Z,4.37
2019-01-08T15:24:14.445Z,10.63
2019-01-08T15:26:54.965Z,2.17
2019-01-08T15:29:35.554Z,2.67
2019-01-08T15:32:16.198Z,2.20
2019-01-08T15:34:57.195Z,2.20
2019-01-08T15:37:37.737Z,2.03
2019-01-08T15:40:18.351Z,1.10
2019-01-08T15:42:58.992Z,2.23
2019-01-08T15:45:39.588Z,1.90
2019-01-08T15:48:20.308Z,1.90
2019-01-08T15:51:00.838Z,2.33
2019-01-08T15:53:41.633Z,2.00
2019-01-08T15:56:22.534Z,2.23
2019-01-08T15:59:03.428Z,2.10
2019-01-08T16:01:44.482Z,2.50
2019-01-08T16:04:25.388Z,2.70
2019-01-08T16:07:06.098Z,2.30
2019-01-08T16:09:48.769Z,2.13
2019-01-08T16:12:29.406Z,2.23
2019-01-08T16:15:10.090Z,1.80
2019-01-08T16:17:50.631Z,2.87
2019-01-08T16:20:31.730Z,2.37
2019-01-08T16:23:12.585Z,1.20
2019-01-08T16:25:53.478Z,1.23
2019-01-08T16:28:34.243Z,1.23
2019-01-08T16:31:14.829Z,1.60
2019-01-08T16:33:55.390Z,1.50
2019-01-08T16:36:36.191Z,1.90
2019-01-08T16:39:16.605Z,1.90
2019-01-08T16:41:57.506Z,1.60
2019-01-08T16:44:37.856Z,1.73
2019-01-08T16:47:18.983Z,1.60
2019-01-08T16:49:59.365Z,2.40
2019-01-08T16:52:40.043Z,2.20
2019-01-08T16:55:20.522Z,1.90
2019-01-08T16:58:01.355Z,1.90
2019-01-08T17:00:41.991Z,1.70
2019-01-08T17:03:10.472Z,1.83
2019-01-08T17:05:58.253Z,1.87
2019-01-08T17:08:46.085Z,1.90
2019-01-08T17:14:27.029Z,1.80
2019-01-08T17:17:14.978Z,1.60
2019-01-08T17:19:58.431Z,2.27
2019-01-08T17:22:39.595Z,1.70
2019-01-08T17:25:20.643Z,1.87
2019-01-08T17:28:01.449Z,2.27
2019-01-08T17:30:42.491Z,2.13
2019-01-08T17:33:23.587Z,2.30
2019-01-08T17:36:07.133Z,2.50
2019-01-08T17:38:47.382Z,2.77
2019-01-08T17:41:28.164Z,2.40
2019-01-08T17:44:08.858Z,2.97
2019-01-08T17:46:49.438Z,2.73
2019-01-08T17:49:30.289Z,2.90
2019-01-08T17:52:11.104Z,2.57
2019-01-08T17:54:51.758Z,2.53
2019-01-08T17:57:32.957Z,2.67
2019-01-08T18:00:13.306Z,2.60
2019-01-08T18:02:54.526Z,2.77
2019-01-08T18:05:35.618Z,2.43
2019-01-08T18:08:16.502Z,3.23
2019-01-08T18:10:56.799Z,2.43
2019-01-08T18:13:37.570Z,2.20
2019-01-08T18:16:18.493Z,2.60
2019-01-08T18:18:59.430Z,2.47
2019-01-08T18:21:40.079Z,1.87
2019-01-08T18:24:20.671Z,2.40
2019-01-08T18:27:01.427Z,2.10
2019-01-08T18:29:42.164Z,2.03
2019-01-08T18:32:23.028Z,2.43
2019-01-08T18:35:05.500Z,2.80
2019-01-08T18:37:46.671Z,2.33
2019-01-08T18:40:15.149Z,2.43
2019-01-08T18:43:03.089Z,2.40
2019-01-08T18:45:50.927Z,2.33
2019-01-08T18:48:38.724Z,2.07
2019-01-08T18:51:26.488Z,1.93
2019-01-08T18:54:14.292Z,1.83
2019-01-08T18:57:02.056Z,2.00
2019-01-08T18:59:49.897Z,2.00
2019-01-08T19:02:37.794Z,2.47
2019-01-08T19:05:25.554Z,2.10
2019-01-08T19:08:13.360Z,1.40
2019-01-08T19:10:53.756Z,1.90
2019-01-08T19:13:34.307Z,1.60
2019-01-08T19:16:14.939Z,1.13
2019-01-08T19:18:55.649Z,1.57
2019-01-08T19:21:36.198Z,1.57
2019-01-08T19:24:17.279Z,1.60
2019-01-08T19:26:58.666Z,1.60
2019-01-08T19:29:39.651Z,1.50
2019-01-08T19:32:08.062Z,2.00
2019-01-08T19:34:55.858Z,1.30
2019-01-08T19:37:43.609Z,2.17
2019-01-08T19:40:31.427Z,2.13
2019-01-08T19:43:19.231Z,1.80
2019-01-08T19:46:06.971Z,2.10
2019-01-08T19:48:54.927Z,2.17
2019-01-08T19:51:42.783Z,2.17
2019-01-08T19:54:30.581Z,1.93
2019-01-08T19:57:18.333Z,2.70
2019-01-08T20:00:26.894Z,2.10
2019-01-08T20:03:14.689Z,2.27
2019-01-08T20:06:02.453Z,2.30
2019-01-08T20:08:50.235Z,2.30
2019-01-08T20:11:31.373Z,1.40
2019-01-08T20:14:12.302Z,1.93
2019-01-08T20:16:53.291Z,2.20
2019-01-08T20:19:34.197Z,2.10
2019-01-08T20:22:14.746Z,1.90
2019-01-08T20:24:55.689Z,2.20
2019-01-08T20:27:36.593Z,1.70
2019-01-08T20:30:16.959Z,2.30
2019-01-08T20:35:39.732Z,2.00
2019-01-08T20:38:20.355Z,0.77
2019-01-08T20:41:00.664Z,1.80
2019-01-08T20:43:41.761Z,1.50
2019-01-08T20:46:22.324Z,1.97
2019-01-08T20:49:03.309Z,1.30
2019-01-08T20:51:44.129Z,1.90
2019-01-08T20:54:24.691Z,2.00
2019-01-08T20:57:09.115Z,2.10
2019-01-08T20:59:47.855Z,2.60
2019-01-08T21:02:29.138Z,2.30
2019-01-08T21:05:09.731Z,2.00
2019-01-08T21:07:50.589Z,2.00
2019-01-08T21:10:31.634Z,1.90
2019-01-08T21:13:12.047Z,2.30
2019-01-08T21:15:52.943Z,2.20
2019-01-08T21:18:33.405Z,1.80
2019-01-08T21:23:56.351Z,2.03
2019-01-08T21:29:37.113Z,2.93
2019-01-08T21:32:17.847Z,1.43
2019-01-08T21:34:58.430Z,2.57
2019-01-08T21:37:39.198Z,2.10
2019-01-08T21:40:19.808Z,2.70
2019-01-08T21:43:00.517Z,2.27
2019-01-08T21:45:41.267Z,2.57
2019-01-08T21:48:22.200Z,1.33
2019-01-08T21:51:03.143Z,2.87
2019-01-08T21:53:43.618Z,2.90
2019-01-08T21:56:24.633Z,2.70
2019-01-08T21:59:05.423Z,2.63
2019-01-08T22:01:46.159Z,1.80
2019-01-08T22:04:26.924Z,2.13
2019-01-08T22:07:07.665Z,2.40
2019-01-08T22:09:48.860Z,2.37
2019-01-08T22:12:29.900Z,2.03
2019-01-08T22:15:10.491Z,2.60
2019-01-08T22:17:50.943Z,2.30
2019-01-08T22:20:32.146Z,2.60
2019-01-08T22:23:12.881Z,2.83
2019-01-08T22:25:53.474Z,2.60
2019-01-08T22:28:34.118Z,2.60
2019-01-08T22:31:14.922Z,2.63
2019-01-08T22:33:56.043Z,2.43
2019-01-08T22:36:36.566Z,2.83
2019-01-08T22:39:17.624Z,2.40
2019-01-08T22:41:57.870Z,2.80
2019-01-08T22:44:38.299Z,2.77
2019-01-08T22:47:18.967Z,3.10
2019-01-08T22:49:59.504Z,2.27
2019-01-08T22:55:22.195Z,3.20
2019-01-08T23:03:39.474Z,2.97
2019-01-08T23:06:19.920Z,2.80
2019-01-08T23:09:00.773Z,2.87
2019-01-08T23:11:41.562Z,3.20
2019-01-08T23:14:22.379Z,3.10
2019-01-08T23:17:02.922Z,2.77
2019-01-08T23:19:43.392Z,3.03
2019-01-08T23:22:24.119Z,3.87
2019-01-08T23:25:04.590Z,2.77
2019-01-08T23:27:45.058Z,2.57
2019-01-08T23:30:25.308Z,2.60
2019-01-08T23:33:05.969Z,3.50
2019-01-08T23:35:46.399Z,3.13
2019-01-08T23:38:26.659Z,3.00
2019-01-08T23:41:07.131Z,2.47
2019-01-08T23:43:47.957Z,2.50
2019-01-08T23:46:28.728Z,2.03
2019-01-08T23:49:09.554Z,2.40
2019-01-08T23:51:50.377Z,3.10
2019-01-08T23:54:30.890Z,2.57
2019-01-08T23:57:11.579Z,2.73
2019-01-08T23:59:52.016Z,2.80
